sensor_id;sensor_type;location;lat;lon;timestamp;P1;durP1;ratioP1;P2;durP2;ratioP2
64686;SDS011;51113;53.646;-113.674;2023-07-31T00:00:14;9.18;;;1.88;;
64686;SDS011;51113;53.646;-113.674;2023-07-31T00:02:43;4.65;;;1.60;;
64686;SDS011;51113;53.646;-113.674;2023-07-31T00:05:11;5.38;;;1.70;;
64686;SDS011;51113;53.646;-113.674;2023-07-31T00:07:40;6.63;;;1.60;;
64686;SDS011;51113;53.646;-113.674;2023-07-31T00:10:09;3.03;;;1.50;;
64686;SDS011;51113;53.646;-113.674;2023-07-31T00:12:38;3.75;;;1.38;;
64686;SDS011;51113;53.646;-113.674;2023-07-31T00:15:10;7.65;;;1.95;;
64686;SDS011;51113;53.646;-113.674;2023-07-31T00:17:38;7.43;;;1.60;;
64686;SDS011;51113;53.646;-113.674;2023-07-31T00:20:07;4.55;;;1.60;;
64686;SDS011;51113;53.646;-113.674;2023-07-31T00:22:36;4.88;;;1.50;;
64686;SDS011;51113;53.646;-113.674;2023-07-31T00:25:05;9.50;;;1.63;;
64686;SDS011;51113;53.646;-113.674;2023-07-31T00:27:34;7.18;;;1.60;;
64686;SDS011;51113;53.646;-113.674;2023-07-31T00:30:03;5.55;;;1.80;;
64686;SDS011;51113;53.646;-113.674;2023-07-31T00:32:32;8.13;;;1.85;;
64686;SDS011;51113;53.646;-113.674;2023-07-31T00:35:01;7.53;;;1.70;;
64686;SDS011;51113;53.646;-113.674;2023-07-31T00:37:29;3.17;;;2.00;;
64686;SDS011;51113;53.646;-113.674;2023-07-31T00:39:58;8.20;;;1.73;;
64686;SDS011;51113;53.646;-113.674;2023-07-31T00:42:27;3.05;;;1.58;;
64686;SDS011;51113;53.646;-113.674;2023-07-31T00:44:56;5.82;;;1.70;;
64686;SDS011;51113;53.646;-113.674;2023-07-31T00:47:24;9.88;;;1.70;;
64686;SDS011;51113;53.646;-113.674;2023-07-31T00:49:54;4.22;;;1.40;;
64686;SDS011;51113;53.646;-113.674;2023-07-31T00:52:22;4.03;;;1.20;;
64686;SDS011;51113;53.646;-113.674;2023-07-31T00:54:51;2.10;;;1.58;;
64686;SDS011;51113;53.646;-113.674;2023-07-31T00:57:20;5.45;;;1.63;;
64686;SDS011;51113;53.646;-113.674;2023-07-31T00:59:49;3.45;;;1.27;;
64686;SDS011;51113;53.646;-113.674;2023-07-31T01:02:17;4.38;;;1.45;;
64686;SDS011;51113;53.646;-113.674;2023-07-31T01:04:46;2.67;;;1.30;;
64686;SDS011;51113;53.646;-113.674;2023-07-31T01:08:02;9.27;;;2.05;;
64686;SDS011;51113;53.646;-113.674;2023-07-31T01:10:20;3.08;;;1.42;;
64686;SDS011;51113;53.646;-113.674;2023-07-31T01:12:54;4.95;;;1.42;;
64686;SDS011;51113;53.646;-113.674;2023-07-31T01:15:25;5.07;;;1.40;;
64686;SDS011;51113;53.646;-113.674;2023-07-31T01:17:54;3.53;;;1.55;;
64686;SDS011;51113;53.646;-113.674;2023-07-31T01:20:23;6.22;;;1.77;;
64686;SDS011;51113;53.646;-113.674;2023-07-31T01:22:59;6.22;;;1.58;;
64686;SDS011;51113;53.646;-113.674;2023-07-31T01:31:17;3.15;;;1.40;;
64686;SDS011;51113;53.646;-113.674;2023-07-31T01:33:50;4.70;;;1.63;;
64686;SDS011;51113;53.646;-113.674;2023-07-31T01:36:21;2.47;;;1.08;;
64686;SDS011;51113;53.646;-113.674;2023-07-31T01:38:50;7.05;;;1.60;;
64686;SDS011;51113;53.646;-113.674;2023-07-31T01:41:19;6.28;;;1.67;;
64686;SDS011;51113;53.646;-113.674;2023-07-31T01:43:47;4.85;;;1.67;;
64686;SDS011;51113;53.646;-113.674;2023-07-31T01:46:16;11.35;;;1.80;;
64686;SDS011;51113;53.646;-113.674;2023-07-31T01:48:45;8.65;;;1.40;;
64686;SDS011;51113;53.646;-113.674;2023-07-31T01:51:14;3.03;;;1.42;;
64686;SDS011;51113;53.646;-113.674;2023-07-31T01:53:42;4.38;;;1.42;;
64686;SDS011;51113;53.646;-113.674;2023-07-31T01:56:11;3.67;;;1.50;;
64686;SDS011;51113;53.646;-113.674;2023-07-31T01:58:40;8.68;;;1.75;;
64686;SDS011;51113;53.646;-113.674;2023-07-31T02:01:08;7.95;;;1.73;;
64686;SDS011;51113;53.646;-113.674;2023-07-31T02:03:37;4.18;;;2.05;;
64686;SDS011;51113;53.646;-113.674;2023-07-31T02:06:06;11.20;;;1.77;;
64686;SDS011;51113;53.646;-113.674;2023-07-31T02:08:34;5.05;;;1.60;;
64686;SDS011;51113;53.646;-113.674;2023-07-31T02:11:03;10.77;;;1.80;;
64686;SDS011;51113;53.646;-113.674;2023-07-31T02:13:31;5.80;;;1.80;;
64686;SDS011;51113;53.646;-113.674;2023-07-31T02:16:00;7.32;;;2.20;;
64686;SDS011;51113;53.646;-113.674;2023-07-31T02:18:29;4.95;;;2.00;;
64686;SDS011;51113;53.646;-113.674;2023-07-31T02:20:57;3.53;;;1.83;;
64686;SDS011;51113;53.646;-113.674;2023-07-31T02:23:26;6.82;;;2.03;;
64686;SDS011;51113;53.646;-113.674;2023-07-31T02:25:55;5.18;;;1.98;;
64686;SDS011;51113;53.646;-113.674;2023-07-31T02:28:24;7.03;;;1.92;;
64686;SDS011;51113;53.646;-113.674;2023-07-31T02:30:53;14.68;;;2.10;;
64686;SDS011;51113;53.646;-113.674;2023-07-31T02:33:21;4.65;;;1.80;;
64686;SDS011;51113;53.646;-113.674;2023-07-31T02:35:50;6.22;;;1.83;;
64686;SDS011;51113;53.646;-113.674;2023-07-31T02:38:19;2.95;;;1.75;;
64686;SDS011;51113;53.646;-113.674;2023-07-31T02:40:47;3.25;;;1.73;;
64686;SDS011;51113;53.646;-113.674;2023-07-31T02:43:16;3.92;;;1.45;;
64686;SDS011;51113;53.646;-113.674;2023-07-31T02:45:45;6.63;;;1.38;;
64686;SDS011;51113;53.646;-113.674;2023-07-31T02:48:14;6.75;;;1.60;;
64686;SDS011;51113;53.646;-113.674;2023-07-31T02:50:43;2.67;;;1.42;;
64686;SDS011;51113;53.646;-113.674;2023-07-31T02:53:11;3.50;;;1.50;;
64686;SDS011;51113;53.646;-113.674;2023-07-31T02:55:40;6.22;;;1.60;;
64686;SDS011;51113;53.646;-113.674;2023-07-31T02:58:09;7.88;;;1.55;;
64686;SDS011;51113;53.646;-113.674;2023-07-31T03:00:41;4.93;;;1.90;;
64686;SDS011;51113;53.646;-113.674;2023-07-31T03:03:13;7.68;;;1.42;;
64686;SDS011;51113;53.646;-113.674;2023-07-31T03:05:42;1.58;;;1.10;;
64686;SDS011;51113;53.646;-113.674;2023-07-31T03:08:10;2.40;;;1.30;;
64686;SDS011;51113;53.646;-113.674;2023-07-31T03:10:39;3.05;;;1.10;;
64686;SDS011;51113;53.646;-113.674;2023-07-31T03:13:08;2.58;;;1.20;;
64686;SDS011;51113;53.646;-113.674;2023-07-31T03:15:36;6.20;;;1.45;;
64686;SDS011;51113;53.646;-113.674;2023-07-31T03:18:05;3.70;;;1.20;;
64686;SDS011;51113;53.646;-113.674;2023-07-31T03:20:34;2.67;;;1.48;;
64686;SDS011;51113;53.646;-113.674;2023-07-31T03:23:02;5.32;;;1.70;;
64686;SDS011;51113;53.646;-113.674;2023-07-31T03:25:31;4.18;;;1.17;;
64686;SDS011;51113;53.646;-113.674;2023-07-31T03:28:00;3.20;;;1.38;;
64686;SDS011;51113;53.646;-113.674;2023-07-31T03:30:29;3.95;;;1.10;;
64686;SDS011;51113;53.646;-113.674;2023-07-31T03:32:58;2.30;;;1.30;;
64686;SDS011;51113;53.646;-113.674;2023-07-31T03:35:26;4.00;;;1.30;;
64686;SDS011;51113;53.646;-113.674;2023-07-31T03:37:55;2.97;;;1.10;;
64686;SDS011;51113;53.646;-113.674;2023-07-31T03:40:24;3.92;;;1.25;;
64686;SDS011;51113;53.646;-113.674;2023-07-31T03:42:52;3.58;;;1.50;;
64686;SDS011;51113;53.646;-113.674;2023-07-31T03:45:21;2.50;;;1.25;;
64686;SDS011;51113;53.646;-113.674;2023-07-31T03:47:50;2.83;;;1.48;;
64686;SDS011;51113;53.646;-113.674;2023-07-31T03:50:19;3.28;;;1.20;;
64686;SDS011;51113;53.646;-113.674;2023-07-31T03:52:47;5.65;;;1.20;;
64686;SDS011;51113;53.646;-113.674;2023-07-31T03:55:16;6.75;;;1.50;;
64686;SDS011;51113;53.646;-113.674;2023-07-31T03:57:45;7.55;;;1.40;;
64686;SDS011;51113;53.646;-113.674;2023-07-31T04:00:13;2.70;;;1.63;;
64686;SDS011;51113;53.646;-113.674;2023-07-31T04:02:42;6.68;;;1.58;;
64686;SDS011;51113;53.646;-113.674;2023-07-31T04:05:11;7.13;;;1.40;;
64686;SDS011;51113;53.646;-113.674;2023-07-31T04:07:40;3.53;;;1.50;;
64686;SDS011;51113;53.646;-113.674;2023-07-31T04:10:08;5.13;;;1.52;;
64686;SDS011;51113;53.646;-113.674;2023-07-31T04:12:39;9.95;;;1.67;;
64686;SDS011;51113;53.646;-113.674;2023-07-31T04:15:08;6.32;;;1.98;;
64686;SDS011;51113;53.646;-113.674;2023-07-31T04:17:37;3.67;;;1.38;;
64686;SDS011;51113;53.646;-113.674;2023-07-31T04:20:06;5.50;;;1.42;;
64686;SDS011;51113;53.646;-113.674;2023-07-31T04:22:35;4.68;;;1.67;;
64686;SDS011;51113;53.646;-113.674;2023-07-31T04:25:03;4.35;;;1.55;;
64686;SDS011;51113;53.646;-113.674;2023-07-31T04:27:33;3.47;;;1.50;;
64686;SDS011;51113;53.646;-113.674;2023-07-31T04:30:01;3.92;;;1.65;;
64686;SDS011;51113;53.646;-113.674;2023-07-31T04:32:31;4.25;;;1.33;;
64686;SDS011;51113;53.646;-113.674;2023-07-31T04:34:59;5.63;;;1.50;;
64686;SDS011;51113;53.646;-113.674;2023-07-31T04:37:28;3.47;;;1.35;;
64686;SDS011;51113;53.646;-113.674;2023-07-31T04:39:57;2.58;;;1.25;;
64686;SDS011;51113;53.646;-113.674;2023-07-31T04:42:25;5.20;;;1.38;;
64686;SDS011;51113;53.646;-113.674;2023-07-31T04:44:54;7.03;;;1.92;;
64686;SDS011;51113;53.646;-113.674;2023-07-31T04:47:23;3.45;;;1.42;;
64686;SDS011;51113;53.646;-113.674;2023-07-31T04:49:52;10.88;;;1.52;;
64686;SDS011;51113;53.646;-113.674;2023-07-31T04:52:20;11.95;;;1.73;;
64686;SDS011;51113;53.646;-113.674;2023-07-31T04:54:49;5.70;;;2.20;;
64686;SDS011;51113;53.646;-113.674;2023-07-31T04:57:18;2.83;;;1.38;;
64686;SDS011;51113;53.646;-113.674;2023-07-31T04:59:47;5.72;;;1.40;;
64686;SDS011;51113;53.646;-113.674;2023-07-31T05:02:17;5.80;;;1.65;;
64686;SDS011;51113;53.646;-113.674;2023-07-31T05:04:45;2.22;;;1.40;;
64686;SDS011;51113;53.646;-113.674;2023-07-31T05:07:14;3.30;;;1.58;;
64686;SDS011;51113;53.646;-113.674;2023-07-31T05:09:44;3.00;;;1.45;;
64686;SDS011;51113;53.646;-113.674;2023-07-31T05:12:13;9.00;;;1.85;;
64686;SDS011;51113;53.646;-113.674;2023-07-31T05:14:41;2.85;;;1.48;;
64686;SDS011;51113;53.646;-113.674;2023-07-31T05:17:10;5.60;;;1.70;;
64686;SDS011;51113;53.646;-113.674;2023-07-31T05:19:39;9.57;;;1.65;;
64686;SDS011;51113;53.646;-113.674;2023-07-31T05:22:08;3.67;;;1.63;;
64686;SDS011;51113;53.646;-113.674;2023-07-31T05:24:37;4.60;;;1.80;;
64686;SDS011;51113;53.646;-113.674;2023-07-31T05:27:06;3.33;;;1.50;;
64686;SDS011;51113;53.646;-113.674;2023-07-31T05:29:34;6.57;;;1.67;;
64686;SDS011;51113;53.646;-113.674;2023-07-31T05:32:02;3.78;;;1.50;;
64686;SDS011;51113;53.646;-113.674;2023-07-31T05:34:32;4.65;;;1.65;;
64686;SDS011;51113;53.646;-113.674;2023-07-31T05:37:00;6.55;;;2.20;;
64686;SDS011;51113;53.646;-113.674;2023-07-31T05:39:29;7.50;;;2.47;;
64686;SDS011;51113;53.646;-113.674;2023-07-31T05:41:58;7.65;;;3.65;;
64686;SDS011;51113;53.646;-113.674;2023-07-31T05:44:26;8.40;;;4.40;;
64686;SDS011;51113;53.646;-113.674;2023-07-31T05:46:55;6.60;;;3.55;;
64686;SDS011;51113;53.646;-113.674;2023-07-31T05:49:24;7.30;;;2.92;;
64686;SDS011;51113;53.646;-113.674;2023-07-31T05:51:52;13.63;;;3.45;;
64686;SDS011;51113;53.646;-113.674;2023-07-31T05:54:20;8.27;;;2.90;;
64686;SDS011;51113;53.646;-113.674;2023-07-31T05:56:49;5.30;;;2.85;;
64686;SDS011;51113;53.646;-113.674;2023-07-31T05:59:17;7.82;;;2.58;;
64686;SDS011;51113;53.646;-113.674;2023-07-31T06:01:46;4.05;;;2.10;;
64686;SDS011;51113;53.646;-113.674;2023-07-31T06:04:14;6.60;;;1.75;;
64686;SDS011;51113;53.646;-113.674;2023-07-31T06:06:43;5.25;;;1.77;;
64686;SDS011;51113;53.646;-113.674;2023-07-31T06:09:12;4.47;;;1.77;;
64686;SDS011;51113;53.646;-113.674;2023-07-31T06:11:41;8.80;;;1.70;;
64686;SDS011;51113;53.646;-113.674;2023-07-31T06:14:09;2.70;;;1.35;;
64686;SDS011;51113;53.646;-113.674;2023-07-31T06:16:38;6.10;;;1.60;;
64686;SDS011;51113;53.646;-113.674;2023-07-31T06:19:07;6.43;;;1.50;;
64686;SDS011;51113;53.646;-113.674;2023-07-31T06:21:37;2.60;;;1.60;;
64686;SDS011;51113;53.646;-113.674;2023-07-31T06:24:06;3.05;;;1.40;;
64686;SDS011;51113;53.646;-113.674;2023-07-31T06:26:34;2.47;;;1.42;;
64686;SDS011;51113;53.646;-113.674;2023-07-31T06:29:04;3.35;;;1.48;;
64686;SDS011;51113;53.646;-113.674;2023-07-31T06:31:32;2.85;;;1.30;;
64686;SDS011;51113;53.646;-113.674;2023-07-31T06:34:01;2.22;;;1.50;;
64686;SDS011;51113;53.646;-113.674;2023-07-31T06:36:30;7.18;;;1.40;;
64686;SDS011;51113;53.646;-113.674;2023-07-31T06:38:59;3.92;;;1.70;;
64686;SDS011;51113;53.646;-113.674;2023-07-31T06:41:27;3.95;;;1.50;;
64686;SDS011;51113;53.646;-113.674;2023-07-31T06:43:56;2.45;;;1.23;;
64686;SDS011;51113;53.646;-113.674;2023-07-31T06:46:25;1.65;;;1.20;;
64686;SDS011;51113;53.646;-113.674;2023-07-31T06:48:53;2.47;;;1.45;;
64686;SDS011;51113;53.646;-113.674;2023-07-31T06:51:22;2.25;;;1.45;;
64686;SDS011;51113;53.646;-113.674;2023-07-31T06:53:51;3.75;;;1.50;;
64686;SDS011;51113;53.646;-113.674;2023-07-31T06:56:20;4.30;;;1.45;;
64686;SDS011;51113;53.646;-113.674;2023-07-31T06:58:49;1.92;;;1.33;;
64686;SDS011;51113;53.646;-113.674;2023-07-31T07:01:18;2.85;;;1.38;;
64686;SDS011;51113;53.646;-113.674;2023-07-31T07:03:47;2.30;;;1.20;;
64686;SDS011;51113;53.646;-113.674;2023-07-31T07:06:18;2.33;;;1.17;;
64686;SDS011;51113;53.646;-113.674;2023-07-31T07:08:47;1.88;;;1.38;;
64686;SDS011;51113;53.646;-113.674;2023-07-31T07:11:16;3.92;;;1.23;;
64686;SDS011;51113;53.646;-113.674;2023-07-31T07:13:44;2.97;;;1.38;;
64686;SDS011;51113;53.646;-113.674;2023-07-31T07:16:13;2.28;;;1.20;;
64686;SDS011;51113;53.646;-113.674;2023-07-31T07:18:42;2.13;;;1.50;;
64686;SDS011;51113;53.646;-113.674;2023-07-31T07:21:29;3.25;;;1.42;;
64686;SDS011;51113;53.646;-113.674;2023-07-31T07:23:58;2.10;;;1.20;;
64686;SDS011;51113;53.646;-113.674;2023-07-31T07:26:27;2.60;;;1.50;;
64686;SDS011;51113;53.646;-113.674;2023-07-31T07:28:55;3.47;;;1.30;;
64686;SDS011;51113;53.646;-113.674;2023-07-31T07:31:27;2.38;;;1.30;;
64686;SDS011;51113;53.646;-113.674;2023-07-31T07:33:56;1.83;;;1.27;;
64686;SDS011;51113;53.646;-113.674;2023-07-31T07:36:27;1.75;;;1.25;;
64686;SDS011;51113;53.646;-113.674;2023-07-31T07:38:56;4.80;;;1.35;;
64686;SDS011;51113;53.646;-113.674;2023-07-31T07:41:25;7.88;;;1.63;;
64686;SDS011;51113;53.646;-113.674;2023-07-31T07:43:54;3.15;;;1.40;;
64686;SDS011;51113;53.646;-113.674;2023-07-31T07:46:22;2.22;;;1.20;;
64686;SDS011;51113;53.646;-113.674;2023-07-31T07:48:51;3.67;;;1.35;;
64686;SDS011;51113;53.646;-113.674;2023-07-31T07:51:20;2.10;;;1.20;;
64686;SDS011;51113;53.646;-113.674;2023-07-31T07:53:48;5.88;;;1.40;;
64686;SDS011;51113;53.646;-113.674;2023-07-31T07:56:17;4.05;;;1.30;;
64686;SDS011;51113;53.646;-113.674;2023-07-31T07:58:48;1.95;;;1.30;;
64686;SDS011;51113;53.646;-113.674;2023-07-31T08:01:18;4.78;;;1.23;;
64686;SDS011;51113;53.646;-113.674;2023-07-31T08:03:47;4.10;;;1.92;;
64686;SDS011;51113;53.646;-113.674;2023-07-31T08:06:15;3.20;;;1.30;;
64686;SDS011;51113;53.646;-113.674;2023-07-31T08:08:45;3.58;;;1.58;;
64686;SDS011;51113;53.646;-113.674;2023-07-31T08:11:13;6.30;;;1.45;;
64686;SDS011;51113;53.646;-113.674;2023-07-31T08:13:41;5.85;;;1.38;;
64686;SDS011;51113;53.646;-113.674;2023-07-31T08:16:10;4.10;;;1.80;;
64686;SDS011;51113;53.646;-113.674;2023-07-31T08:18:39;4.60;;;1.52;;
64686;SDS011;51113;53.646;-113.674;2023-07-31T08:21:08;2.17;;;1.45;;
64686;SDS011;51113;53.646;-113.674;2023-07-31T08:23:37;5.78;;;1.50;;
64686;SDS011;51113;53.646;-113.674;2023-07-31T08:26:06;3.90;;;1.58;;
64686;SDS011;51113;53.646;-113.674;2023-07-31T08:28:35;2.80;;;1.60;;
64686;SDS011;51113;53.646;-113.674;2023-07-31T08:31:04;4.55;;;1.88;;
64686;SDS011;51113;53.646;-113.674;2023-07-31T08:33:33;2.97;;;1.60;;
64686;SDS011;51113;53.646;-113.674;2023-07-31T08:36:02;3.92;;;1.95;;
64686;SDS011;51113;53.646;-113.674;2023-07-31T08:38:31;2.92;;;1.73;;
64686;SDS011;51113;53.646;-113.674;2023-07-31T08:41:00;4.03;;;1.85;;
64686;SDS011;51113;53.646;-113.674;2023-07-31T08:43:32;2.42;;;1.80;;
64686;SDS011;51113;53.646;-113.674;2023-07-31T08:46:01;12.70;;;2.95;;
64686;SDS011;51113;53.646;-113.674;2023-07-31T08:48:30;2.22;;;1.67;;
64686;SDS011;51113;53.646;-113.674;2023-07-31T08:51:00;5.63;;;1.98;;
64686;SDS011;51113;53.646;-113.674;2023-07-31T08:53:29;3.78;;;2.10;;
64686;SDS011;51113;53.646;-113.674;2023-07-31T08:55:58;2.60;;;1.65;;
64686;SDS011;51113;53.646;-113.674;2023-07-31T08:58:28;3.58;;;1.77;;
64686;SDS011;51113;53.646;-113.674;2023-07-31T09:01:00;3.53;;;1.90;;
64686;SDS011;51113;53.646;-113.674;2023-07-31T09:03:33;6.20;;;2.00;;
64686;SDS011;51113;53.646;-113.674;2023-07-31T09:06:04;2.60;;;1.80;;
64686;SDS011;51113;53.646;-113.674;2023-07-31T09:08:34;7.68;;;2.20;;
64686;SDS011;51113;53.646;-113.674;2023-07-31T09:11:05;3.20;;;2.10;;
64686;SDS011;51113;53.646;-113.674;2023-07-31T09:13:34;5.82;;;2.58;;
64686;SDS011;51113;53.646;-113.674;2023-07-31T09:16:04;2.95;;;1.80;;
64686;SDS011;51113;53.646;-113.674;2023-07-31T09:18:41;3.92;;;2.15;;
64686;SDS011;51113;53.646;-113.674;2023-07-31T09:21:21;4.22;;;2.38;;
64686;SDS011;51113;53.646;-113.674;2023-07-31T09:23:51;3.00;;;2.17;;
64686;SDS011;51113;53.646;-113.674;2023-07-31T09:29:01;5.82;;;2.78;;
64686;SDS011;51113;53.646;-113.674;2023-07-31T09:31:40;5.13;;;2.40;;
64686;SDS011;51113;53.646;-113.674;2023-07-31T09:34:10;6.13;;;2.25;;
64686;SDS011;51113;53.646;-113.674;2023-07-31T09:36:48;5.38;;;2.53;;
64686;SDS011;51113;53.646;-113.674;2023-07-31T09:39:18;5.38;;;2.60;;
64686;SDS011;51113;53.646;-113.674;2023-07-31T09:41:54;4.57;;;2.35;;
64686;SDS011;51113;53.646;-113.674;2023-07-31T09:44:39;4.05;;;2.70;;
64686;SDS011;51113;53.646;-113.674;2023-07-31T09:47:21;4.15;;;2.75;;
64686;SDS011;51113;53.646;-113.674;2023-07-31T09:49:54;4.45;;;2.65;;
64686;SDS011;51113;53.646;-113.674;2023-07-31T09:52:23;5.53;;;2.80;;
64686;SDS011;51113;53.646;-113.674;2023-07-31T09:54:55;9.77;;;2.87;;
64686;SDS011;51113;53.646;-113.674;2023-07-31T09:57:23;4.00;;;2.50;;
64686;SDS011;51113;53.646;-113.674;2023-07-31T09:59:53;6.20;;;3.38;;
64686;SDS011;51113;53.646;-113.674;2023-07-31T10:02:23;5.85;;;3.00;;
64686;SDS011;51113;53.646;-113.674;2023-07-31T10:04:54;5.47;;;2.92;;
64686;SDS011;51113;53.646;-113.674;2023-07-31T10:07:26;8.68;;;3.55;;
64686;SDS011;51113;53.646;-113.674;2023-07-31T10:09:58;5.68;;;3.60;;
64686;SDS011;51113;53.646;-113.674;2023-07-31T10:12:30;4.87;;;3.53;;
64686;SDS011;51113;53.646;-113.674;2023-07-31T10:15:00;7.47;;;3.83;;
64686;SDS011;51113;53.646;-113.674;2023-07-31T10:17:30;7.65;;;3.92;;
64686;SDS011;51113;53.646;-113.674;2023-07-31T10:19:59;8.80;;;3.65;;
64686;SDS011;51113;53.646;-113.674;2023-07-31T10:22:31;5.13;;;3.45;;
64686;SDS011;51113;53.646;-113.674;2023-07-31T10:25:02;8.07;;;3.53;;
64686;SDS011;51113;53.646;-113.674;2023-07-31T10:27:30;5.00;;;3.30;;
64686;SDS011;51113;53.646;-113.674;2023-07-31T10:29:59;8.18;;;3.50;;
64686;SDS011;51113;53.646;-113.674;2023-07-31T10:32:32;4.60;;;3.05;;
64686;SDS011;51113;53.646;-113.674;2023-07-31T10:35:01;7.82;;;3.10;;
64686;SDS011;51113;53.646;-113.674;2023-07-31T10:37:41;7.10;;;3.38;;
64686;SDS011;51113;53.646;-113.674;2023-07-31T10:40:12;7.85;;;3.22;;
64686;SDS011;51113;53.646;-113.674;2023-07-31T10:42:51;5.55;;;3.30;;
64686;SDS011;51113;53.646;-113.674;2023-07-31T10:48:05;6.38;;;4.10;;
64686;SDS011;51113;53.646;-113.674;2023-07-31T10:50:50;6.97;;;4.28;;
64686;SDS011;51113;53.646;-113.674;2023-07-31T10:53:25;6.15;;;3.80;;
64686;SDS011;51113;53.646;-113.674;2023-07-31T10:56:01;5.93;;;3.92;;
64686;SDS011;51113;53.646;-113.674;2023-07-31T10:58:32;9.50;;;4.28;;
64686;SDS011;51113;53.646;-113.674;2023-07-31T11:01:05;9.05;;;4.28;;
64686;SDS011;51113;53.646;-113.674;2023-07-31T11:03:46;13.05;;;3.85;;
64686;SDS011;51113;53.646;-113.674;2023-07-31T11:06:17;6.32;;;3.75;;
64686;SDS011;51113;53.646;-113.674;2023-07-31T11:08:47;6.93;;;3.50;;
64686;SDS011;51113;53.646;-113.674;2023-07-31T11:11:17;5.05;;;3.60;;
64686;SDS011;51113;53.646;-113.674;2023-07-31T11:13:47;7.32;;;3.63;;
64686;SDS011;51113;53.646;-113.674;2023-07-31T11:16:18;7.63;;;4.00;;
64686;SDS011;51113;53.646;-113.674;2023-07-31T11:18:48;6.95;;;3.95;;
64686;SDS011;51113;53.646;-113.674;2023-07-31T11:21:20;12.00;;;3.50;;
64686;SDS011;51113;53.646;-113.674;2023-07-31T11:23:53;8.07;;;4.07;;
64686;SDS011;51113;53.646;-113.674;2023-07-31T11:26:28;10.90;;;4.10;;
64686;SDS011;51113;53.646;-113.674;2023-07-31T11:28:58;6.53;;;4.20;;
64686;SDS011;51113;53.646;-113.674;2023-07-31T11:31:27;6.18;;;4.10;;
64686;SDS011;51113;53.646;-113.674;2023-07-31T11:34:05;7.32;;;4.00;;
64686;SDS011;51113;53.646;-113.674;2023-07-31T11:36:34;13.35;;;4.10;;
64686;SDS011;51113;53.646;-113.674;2023-07-31T11:39:10;9.07;;;3.53;;
64686;SDS011;51113;53.646;-113.674;2023-07-31T11:41:42;6.57;;;3.83;;
64686;SDS011;51113;53.646;-113.674;2023-07-31T11:44:10;7.15;;;3.63;;
64686;SDS011;51113;53.646;-113.674;2023-07-31T11:46:56;8.23;;;4.38;;
64686;SDS011;51113;53.646;-113.674;2023-07-31T11:49:25;7.28;;;3.60;;
64686;SDS011;51113;53.646;-113.674;2023-07-31T11:51:54;12.20;;;3.78;;
64686;SDS011;51113;53.646;-113.674;2023-07-31T11:54:23;7.47;;;3.85;;
64686;SDS011;51113;53.646;-113.674;2023-07-31T11:56:52;6.07;;;3.40;;
64686;SDS011;51113;53.646;-113.674;2023-07-31T11:59:21;7.47;;;3.63;;
64686;SDS011;51113;53.646;-113.674;2023-07-31T12:01:50;5.63;;;3.83;;
64686;SDS011;51113;53.646;-113.674;2023-07-31T12:04:20;10.45;;;4.13;;
64686;SDS011;51113;53.646;-113.674;2023-07-31T12:06:49;6.57;;;3.58;;
64686;SDS011;51113;53.646;-113.674;2023-07-31T12:09:24;5.03;;;3.30;;
64686;SDS011;51113;53.646;-113.674;2023-07-31T12:11:54;11.15;;;3.97;;
64686;SDS011;51113;53.646;-113.674;2023-07-31T12:14:26;4.75;;;3.33;;
64686;SDS011;51113;53.646;-113.674;2023-07-31T12:17:00;6.38;;;3.28;;
64686;SDS011;51113;53.646;-113.674;2023-07-31T12:19:32;4.30;;;3.28;;
64686;SDS011;51113;53.646;-113.674;2023-07-31T12:22:10;5.57;;;3.58;;
64686;SDS011;51113;53.646;-113.674;2023-07-31T12:24:43;7.18;;;3.55;;
64686;SDS011;51113;53.646;-113.674;2023-07-31T12:27:13;6.35;;;3.38;;
64686;SDS011;51113;53.646;-113.674;2023-07-31T12:29:43;10.50;;;3.97;;
64686;SDS011;51113;53.646;-113.674;2023-07-31T12:32:19;8.25;;;3.65;;
64686;SDS011;51113;53.646;-113.674;2023-07-31T12:34:48;7.80;;;3.60;;
64686;SDS011;51113;53.646;-113.674;2023-07-31T12:37:17;5.95;;;3.58;;
64686;SDS011;51113;53.646;-113.674;2023-07-31T12:39:45;5.07;;;3.53;;
64686;SDS011;51113;53.646;-113.674;2023-07-31T12:42:14;13.82;;;3.58;;
64686;SDS011;51113;53.646;-113.674;2023-07-31T12:44:45;8.13;;;3.63;;
64686;SDS011;51113;53.646;-113.674;2023-07-31T12:47:14;5.88;;;3.50;;
64686;SDS011;51113;53.646;-113.674;2023-07-31T12:49:43;10.75;;;3.85;;
64686;SDS011;51113;53.646;-113.674;2023-07-31T12:52:11;5.78;;;3.47;;
64686;SDS011;51113;53.646;-113.674;2023-07-31T12:54:40;10.05;;;3.85;;
64686;SDS011;51113;53.646;-113.674;2023-07-31T12:57:09;8.18;;;4.40;;
64686;SDS011;51113;53.646;-113.674;2023-07-31T12:59:37;12.48;;;3.80;;
64686;SDS011;51113;53.646;-113.674;2023-07-31T13:02:05;6.63;;;3.60;;
64686;SDS011;51113;53.646;-113.674;2023-07-31T13:04:34;8.95;;;4.07;;
64686;SDS011;51113;53.646;-113.674;2023-07-31T13:07:03;7.18;;;3.75;;
64686;SDS011;51113;53.646;-113.674;2023-07-31T13:09:32;10.88;;;3.90;;
64686;SDS011;51113;53.646;-113.674;2023-07-31T13:12:01;12.80;;;3.97;;
64686;SDS011;51113;53.646;-113.674;2023-07-31T13:14:30;5.60;;;3.50;;
64686;SDS011;51113;53.646;-113.674;2023-07-31T13:16:59;6.68;;;3.40;;
64686;SDS011;51113;53.646;-113.674;2023-07-31T13:19:28;10.00;;;3.92;;
64686;SDS011;51113;53.646;-113.674;2023-07-31T13:21:57;6.45;;;4.13;;
64686;SDS011;51113;53.646;-113.674;2023-07-31T13:24:27;5.45;;;3.10;;
64686;SDS011;51113;53.646;-113.674;2023-07-31T13:26:56;4.80;;;3.10;;
64686;SDS011;51113;53.646;-113.674;2023-07-31T13:29:25;7.53;;;3.83;;
64686;SDS011;51113;53.646;-113.674;2023-07-31T13:31:54;8.48;;;3.80;;
64686;SDS011;51113;53.646;-113.674;2023-07-31T13:34:22;10.90;;;3.92;;
64686;SDS011;51113;53.646;-113.674;2023-07-31T13:36:51;7.68;;;3.47;;
64686;SDS011;51113;53.646;-113.674;2023-07-31T13:39:21;4.80;;;3.38;;
64686;SDS011;51113;53.646;-113.674;2023-07-31T13:41:50;6.22;;;3.67;;
64686;SDS011;51113;53.646;-113.674;2023-07-31T13:44:18;5.13;;;3.67;;
64686;SDS011;51113;53.646;-113.674;2023-07-31T13:46:47;12.48;;;3.80;;
64686;SDS011;51113;53.646;-113.674;2023-07-31T13:49:16;8.38;;;4.10;;
64686;SDS011;51113;53.646;-113.674;2023-07-31T13:51:44;5.22;;;3.90;;
64686;SDS011;51113;53.646;-113.674;2023-07-31T13:54:14;4.75;;;3.35;;
64686;SDS011;51113;53.646;-113.674;2023-07-31T13:56:43;7.47;;;3.88;;
64686;SDS011;51113;53.646;-113.674;2023-07-31T13:59:12;5.72;;;3.85;;
64686;SDS011;51113;53.646;-113.674;2023-07-31T14:01:43;5.88;;;3.50;;
64686;SDS011;51113;53.646;-113.674;2023-07-31T14:04:12;5.63;;;3.70;;
64686;SDS011;51113;53.646;-113.674;2023-07-31T14:06:41;6.43;;;4.22;;
64686;SDS011;51113;53.646;-113.674;2023-07-31T14:09:10;12.40;;;3.78;;
64686;SDS011;51113;53.646;-113.674;2023-07-31T14:11:39;4.75;;;3.45;;
64686;SDS011;51113;53.646;-113.674;2023-07-31T14:14:09;5.70;;;3.90;;
64686;SDS011;51113;53.646;-113.674;2023-07-31T14:16:38;4.97;;;3.22;;
64686;SDS011;51113;53.646;-113.674;2023-07-31T14:19:07;5.47;;;3.40;;
64686;SDS011;51113;53.646;-113.674;2023-07-31T14:21:36;14.10;;;3.67;;
64686;SDS011;51113;53.646;-113.674;2023-07-31T14:24:05;13.60;;;4.00;;
64686;SDS011;51113;53.646;-113.674;2023-07-31T14:26:34;6.30;;;3.40;;
64686;SDS011;51113;53.646;-113.674;2023-07-31T14:29:03;8.73;;;3.70;;
64686;SDS011;51113;53.646;-113.674;2023-07-31T14:31:32;7.10;;;3.42;;
64686;SDS011;51113;53.646;-113.674;2023-07-31T14:34:01;5.70;;;3.50;;